sensor_id;sensor_type;location;lat;lon;timestamp;P1;durP1;ratioP1;P2;durP2;ratioP2
57113;SDS011;42994;51.606;9.988;2023-02-18T00:00:56;6.07;;;1.80;;
57113;SDS011;42994;51.606;9.988;2023-02-18T00:03:23;9.30;;;1.60;;
57113;SDS011;42994;51.606;9.988;2023-02-18T00:05:51;9.10;;;3.08;;
57113;SDS011;42994;51.606;9.988;2023-02-18T00:08:20;9.35;;;1.50;;
57113;SDS011;42994;51.606;9.988;2023-02-18T00:10:47;9.43;;;1.52;;
57113;SDS011;42994;51.606;9.988;2023-02-18T00:13:20;9.63;;;1.33;;
57113;SDS011;42994;51.606;9.988;2023-02-18T00:15:47;5.47;;;1.33;;
57113;SDS011;42994;51.606;9.988;2023-02-18T00:18:17;7.55;;;1.48;;
57113;SDS011;42994;51.606;9.988;2023-02-18T00:20:43;11.05;;;2.25;;
57113;SDS011;42994;51.606;9.988;2023-02-18T00:23:10;9.27;;;1.27;;
57113;SDS011;42994;51.606;9.988;2023-02-18T00:25:38;7.55;;;1.83;;
57113;SDS011;42994;51.606;9.988;2023-02-18T00:28:05;9.18;;;2.10;;
57113;SDS011;42994;51.606;9.988;2023-02-18T00:30:32;11.70;;;2.03;;
57113;SDS011;42994;51.606;9.988;2023-02-18T00:32:59;11.02;;;2.33;;
57113;SDS011;42994;51.606;9.988;2023-02-18T00:35:25;9.27;;;1.67;;
57113;SDS011;42994;51.606;9.988;2023-02-18T00:37:52;10.65;;;1.70;;
57113;SDS011;42994;51.606;9.988;2023-02-18T00:40:19;6.68;;;1.52;;
57113;SDS011;42994;51.606;9.988;2023-02-18T00:42:47;4.88;;;1.38;;
57113;SDS011;42994;51.606;9.988;2023-02-18T00:45:14;9.13;;;2.15;;
57113;SDS011;42994;51.606;9.988;2023-02-18T00:47:41;6.65;;;1.50;;
57113;SDS011;42994;51.606;9.988;2023-02-18T00:50:08;15.15;;;1.75;;
57113;SDS011;42994;51.606;9.988;2023-02-18T00:52:35;7.95;;;2.08;;
57113;SDS011;42994;51.606;9.988;2023-02-18T00:55:02;10.60;;;2.25;;
57113;SDS011;42994;51.606;9.988;2023-02-18T00:57:29;7.20;;;1.90;;
57113;SDS011;42994;51.606;9.988;2023-02-18T00:59:57;7.00;;;1.85;;
57113;SDS011;42994;51.606;9.988;2023-02-18T01:02:24;9.23;;;1.58;;
57113;SDS011;42994;51.606;9.988;2023-02-18T01:04:51;10.07;;;2.40;;
57113;SDS011;42994;51.606;9.988;2023-02-18T01:07:18;8.48;;;1.98;;
57113;SDS011;42994;51.606;9.988;2023-02-18T01:09:44;10.73;;;2.40;;
57113;SDS011;42994;51.606;9.988;2023-02-18T01:12:12;7.32;;;1.95;;
57113;SDS011;42994;51.606;9.988;2023-02-18T01:14:39;15.70;;;2.42;;
57113;SDS011;42994;51.606;9.988;2023-02-18T01:17:07;9.55;;;1.45;;
57113;SDS011;42994;51.606;9.988;2023-02-18T01:19:33;9.15;;;2.28;;
57113;SDS011;42994;51.606;9.988;2023-02-18T01:22:00;9.10;;;2.08;;
57113;SDS011;42994;51.606;9.988;2023-02-18T01:24:27;10.07;;;2.45;;
57113;SDS011;42994;51.606;9.988;2023-02-18T01:26:54;14.90;;;3.10;;
57113;SDS011;42994;51.606;9.988;2023-02-18T01:29:20;9.35;;;3.47;;
57113;SDS011;42994;51.606;9.988;2023-02-18T01:31:47;15.50;;;3.50;;
57113;SDS011;42994;51.606;9.988;2023-02-18T01:34:15;11.85;;;3.60;;
57113;SDS011;42994;51.606;9.988;2023-02-18T01:36:42;12.45;;;3.88;;
57113;SDS011;42994;51.606;9.988;2023-02-18T01:39:09;8.75;;;4.07;;
57113;SDS011;42994;51.606;9.988;2023-02-18T01:41:36;11.38;;;4.07;;
57113;SDS011;42994;51.606;9.988;2023-02-18T01:44:15;16.27;;;3.80;;
57113;SDS011;42994;51.606;9.988;2023-02-18T01:46:44;15.10;;;3.97;;
57113;SDS011;42994;51.606;9.988;2023-02-18T01:49:11;21.35;;;4.47;;
57113;SDS011;42994;51.606;9.988;2023-02-18T01:51:45;15.23;;;4.30;;
57113;SDS011;42994;51.606;9.988;2023-02-18T01:54:16;16.40;;;4.60;;
57113;SDS011;42994;51.606;9.988;2023-02-18T01:56:47;10.20;;;4.57;;
57113;SDS011;42994;51.606;9.988;2023-02-18T01:59:19;9.35;;;4.65;;
57113;SDS011;42994;51.606;9.988;2023-02-18T02:01:49;14.32;;;4.60;;
57113;SDS011;42994;51.606;9.988;2023-02-18T02:04:16;13.35;;;5.13;;
57113;SDS011;42994;51.606;9.988;2023-02-18T02:06:45;12.65;;;5.55;;
57113;SDS011;42994;51.606;9.988;2023-02-18T02:09:12;15.43;;;5.68;;
57113;SDS011;42994;51.606;9.988;2023-02-18T02:14:55;21.38;;;11.50;;
57113;SDS011;42994;51.606;9.988;2023-02-18T02:17:33;34.97;;;16.75;;
57113;SDS011;42994;51.606;9.988;2023-02-18T02:20:12;39.53;;;21.13;;
57113;SDS011;42994;51.606;9.988;2023-02-18T02:25:50;39.92;;;20.45;;
57113;SDS011;42994;51.606;9.988;2023-02-18T02:28:47;30.27;;;16.60;;
57113;SDS011;42994;51.606;9.988;2023-02-18T02:31:37;30.27;;;14.82;;
57113;SDS011;42994;51.606;9.988;2023-02-18T02:34:33;24.08;;;12.30;;
57113;SDS011;42994;51.606;9.988;2023-02-18T02:37:11;26.38;;;10.98;;
57113;SDS011;42994;51.606;9.988;2023-02-18T02:39:42;24.08;;;10.80;;
57113;SDS011;42994;51.606;9.988;2023-02-18T02:42:20;22.10;;;10.77;;
57113;SDS011;42994;51.606;9.988;2023-02-18T02:44:56;22.88;;;11.45;;
57113;SDS011;42994;51.606;9.988;2023-02-18T02:47:31;25.48;;;11.05;;
57113;SDS011;42994;51.606;9.988;2023-02-18T02:50:05;22.85;;;10.48;;
57113;SDS011;42994;51.606;9.988;2023-02-18T02:52:36;22.85;;;10.43;;
57113;SDS011;42994;51.606;9.988;2023-02-18T02:55:07;21.35;;;10.15;;
57113;SDS011;42994;51.606;9.988;2023-02-18T02:57:41;18.52;;;10.68;;
57113;SDS011;42994;51.606;9.988;2023-02-18T03:00:16;23.13;;;10.75;;
57113;SDS011;42994;51.606;9.988;2023-02-18T03:02:48;25.35;;;10.57;;
57113;SDS011;42994;51.606;9.988;2023-02-18T03:05:39;24.55;;;11.23;;
57113;SDS011;42994;51.606;9.988;2023-02-18T03:08:28;22.40;;;11.77;;
57113;SDS011;42994;51.606;9.988;2023-02-18T03:11:05;21.40;;;10.98;;
57113;SDS011;42994;51.606;9.988;2023-02-18T03:16:28;26.80;;;12.57;;
57113;SDS011;42994;51.606;9.988;2023-02-18T03:19:04;20.63;;;11.60;;
57113;SDS011;42994;51.606;9.988;2023-02-18T03:21:38;25.52;;;12.85;;
57113;SDS011;42994;51.606;9.988;2023-02-18T03:24:11;23.27;;;12.80;;
57113;SDS011;42994;51.606;9.988;2023-02-18T03:26:43;23.88;;;14.05;;
57113;SDS011;42994;51.606;9.988;2023-02-18T03:29:13;33.15;;;14.98;;
57113;SDS011;42994;51.606;9.988;2023-02-18T03:34:14;25.02;;;13.20;;
57113;SDS011;42994;51.606;9.988;2023-02-18T03:36:46;28.70;;;15.82;;
57113;SDS011;42994;51.606;9.988;2023-02-18T03:39:17;33.65;;;15.27;;
57113;SDS011;42994;51.606;9.988;2023-02-18T03:41:45;30.83;;;14.95;;
57113;SDS011;42994;51.606;9.988;2023-02-18T03:44:12;33.30;;;16.15;;
57113;SDS011;42994;51.606;9.988;2023-02-18T03:46:40;32.97;;;16.25;;
57113;SDS011;42994;51.606;9.988;2023-02-18T03:49:10;32.25;;;17.77;;
57113;SDS011;42994;51.606;9.988;2023-02-18T03:51:38;35.30;;;18.00;;
57113;SDS011;42994;51.606;9.988;2023-02-18T03:54:07;31.65;;;17.63;;
57113;SDS011;42994;51.606;9.988;2023-02-18T03:56:34;36.45;;;19.90;;
57113;SDS011;42994;51.606;9.988;2023-02-18T03:59:02;31.48;;;18.48;;
57113;SDS011;42994;51.606;9.988;2023-02-18T04:01:29;31.33;;;18.35;;
57113;SDS011;42994;51.606;9.988;2023-02-18T04:03:56;33.67;;;18.83;;
57113;SDS011;42994;51.606;9.988;2023-02-18T04:06:23;41.13;;;20.30;;
57113;SDS011;42994;51.606;9.988;2023-02-18T04:08:50;34.60;;;18.70;;
57113;SDS011;42994;51.606;9.988;2023-02-18T04:11:18;30.65;;;17.60;;
57113;SDS011;42994;51.606;9.988;2023-02-18T04:13:45;37.08;;;18.60;;
57113;SDS011;42994;51.606;9.988;2023-02-18T04:16:11;32.97;;;19.10;;
57113;SDS011;42994;51.606;9.988;2023-02-18T04:18:38;32.03;;;17.13;;
57113;SDS011;42994;51.606;9.988;2023-02-18T04:21:05;28.27;;;17.65;;
57113;SDS011;42994;51.606;9.988;2023-02-18T04:23:32;30.02;;;17.92;;
57113;SDS011;42994;51.606;9.988;2023-02-18T04:25:59;31.83;;;17.77;;
57113;SDS011;42994;51.606;9.988;2023-02-18T04:28:27;30.55;;;16.63;;
57113;SDS011;42994;51.606;9.988;2023-02-18T04:30:53;31.38;;;17.15;;
57113;SDS011;42994;51.606;9.988;2023-02-18T04:33:20;24.35;;;14.82;;
57113;SDS011;42994;51.606;9.988;2023-02-18T04:35:47;24.30;;;15.52;;
57113;SDS011;42994;51.606;9.988;2023-02-18T04:38:14;22.02;;;12.45;;
57113;SDS011;42994;51.606;9.988;2023-02-18T04:40:41;22.25;;;12.98;;
57113;SDS011;42994;51.606;9.988;2023-02-18T04:43:07;19.20;;;11.82;;
57113;SDS011;42994;51.606;9.988;2023-02-18T04:45:36;19.35;;;10.95;;
57113;SDS011;42994;51.606;9.988;2023-02-18T04:48:03;15.30;;;10.02;;
57113;SDS011;42994;51.606;9.988;2023-02-18T04:50:30;18.17;;;11.18;;
57113;SDS011;42994;51.606;9.988;2023-02-18T04:52:56;16.27;;;10.02;;
57113;SDS011;42994;51.606;9.988;2023-02-18T04:55:23;14.40;;;10.23;;
57113;SDS011;42994;51.606;9.988;2023-02-18T04:57:50;12.43;;;8.90;;
57113;SDS011;42994;51.606;9.988;2023-02-18T05:00:17;15.38;;;10.07;;
57113;SDS011;42994;51.606;9.988;2023-02-18T05:02:46;15.27;;;8.98;;
57113;SDS011;42994;51.606;9.988;2023-02-18T05:05:13;14.80;;;9.98;;
57113;SDS011;42994;51.606;9.988;2023-02-18T05:07:40;15.13;;;9.90;;
57113;SDS011;42994;51.606;9.988;2023-02-18T05:10:07;13.73;;;10.25;;
57113;SDS011;42994;51.606;9.988;2023-02-18T05:12:35;17.98;;;9.90;;
57113;SDS011;42994;51.606;9.988;2023-02-18T05:15:02;16.45;;;10.07;;
57113;SDS011;42994;51.606;9.988;2023-02-18T05:17:28;13.43;;;9.88;;
57113;SDS011;42994;51.606;9.988;2023-02-18T05:19:56;13.82;;;9.07;;
57113;SDS011;42994;51.606;9.988;2023-02-18T05:22:23;15.02;;;10.65;;
57113;SDS011;42994;51.606;9.988;2023-02-18T05:24:50;14.98;;;10.10;;
57113;SDS011;42994;51.606;9.988;2023-02-18T05:27:19;16.65;;;10.57;;
57113;SDS011;42994;51.606;9.988;2023-02-18T05:29:46;17.30;;;11.23;;
57113;SDS011;42994;51.606;9.988;2023-02-18T05:32:13;16.33;;;11.02;;
57113;SDS011;42994;51.606;9.988;2023-02-18T05:34:39;17.33;;;11.20;;
57113;SDS011;42994;51.606;9.988;2023-02-18T05:37:08;16.50;;;10.82;;
57113;SDS011;42994;51.606;9.988;2023-02-18T05:39:34;16.77;;;10.60;;
57113;SDS011;42994;51.606;9.988;2023-02-18T05:42:01;17.80;;;11.70;;
57113;SDS011;42994;51.606;9.988;2023-02-18T05:44:28;15.68;;;10.82;;
57113;SDS011;42994;51.606;9.988;2023-02-18T05:46:58;16.67;;;11.50;;
57113;SDS011;42994;51.606;9.988;2023-02-18T05:49:26;13.90;;;9.73;;
57113;SDS011;42994;51.606;9.988;2023-02-18T05:51:53;16.23;;;10.38;;
57113;SDS011;42994;51.606;9.988;2023-02-18T05:54:21;13.20;;;9.18;;
57113;SDS011;42994;51.606;9.988;2023-02-18T05:56:48;11.77;;;8.90;;
57113;SDS011;42994;51.606;9.988;2023-02-18T05:59:15;14.25;;;9.30;;
57113;SDS011;42994;51.606;9.988;2023-02-18T06:01:41;12.38;;;8.55;;
57113;SDS011;42994;51.606;9.988;2023-02-18T06:04:09;16.15;;;10.63;;
57113;SDS011;42994;51.606;9.988;2023-02-18T06:06:36;14.05;;;10.00;;
57113;SDS011;42994;51.606;9.988;2023-02-18T06:09:03;13.95;;;10.57;;
57113;SDS011;42994;51.606;9.988;2023-02-18T06:11:31;14.02;;;9.77;;
57113;SDS011;42994;51.606;9.988;2023-02-18T06:13:58;13.45;;;9.60;;
57113;SDS011;42994;51.606;9.988;2023-02-18T06:16:25;13.50;;;9.07;;
57113;SDS011;42994;51.606;9.988;2023-02-18T06:18:53;11.77;;;8.23;;
57113;SDS011;42994;51.606;9.988;2023-02-18T06:21:20;11.88;;;8.45;;
57113;SDS011;42994;51.606;9.988;2023-02-18T06:23:47;11.23;;;8.18;;
57113;SDS011;42994;51.606;9.988;2023-02-18T06:26:14;13.18;;;8.50;;
57113;SDS011;42994;51.606;9.988;2023-02-18T06:28:42;12.38;;;8.35;;
57113;SDS011;42994;51.606;9.988;2023-02-18T06:31:15;12.68;;;8.65;;
57113;SDS011;42994;51.606;9.988;2023-02-18T06:33:59;12.50;;;8.48;;
57113;SDS011;42994;51.606;9.988;2023-02-18T06:36:25;13.00;;;8.75;;
57113;SDS011;42994;51.606;9.988;2023-02-18T06:38:52;12.02;;;8.38;;
57113;SDS011;42994;51.606;9.988;2023-02-18T06:41:21;12.30;;;8.15;;
57113;SDS011;42994;51.606;9.988;2023-02-18T06:43:49;14.60;;;8.30;;
57113;SDS011;42994;51.606;9.988;2023-02-18T06:46:16;13.38;;;8.15;;
57113;SDS011;42994;51.606;9.988;2023-02-18T06:48:43;11.98;;;8.00;;
57113;SDS011;42994;51.606;9.988;2023-02-18T06:51:09;12.13;;;8.43;;
57113;SDS011;42994;51.606;9.988;2023-02-18T06:53:36;10.25;;;7.72;;
57113;SDS011;42994;51.606;9.988;2023-02-18T06:56:03;12.57;;;7.63;;
57113;SDS011;42994;51.606;9.988;2023-02-18T06:58:30;12.98;;;8.50;;
57113;SDS011;42994;51.606;9.988;2023-02-18T07:00:58;12.00;;;8.25;;
57113;SDS011;42994;51.606;9.988;2023-02-18T07:03:25;14.02;;;7.95;;
57113;SDS011;42994;51.606;9.988;2023-02-18T07:05:52;11.68;;;7.88;;
57113;SDS011;42994;51.606;9.988;2023-02-18T07:08:19;11.85;;;7.88;;
57113;SDS011;42994;51.606;9.988;2023-02-18T07:10:46;12.55;;;7.60;;
57113;SDS011;42994;51.606;9.988;2023-02-18T07:13:15;14.52;;;8.38;;
57113;SDS011;42994;51.606;9.988;2023-02-18T07:15:42;12.02;;;7.60;;
57113;SDS011;42994;51.606;9.988;2023-02-18T07:18:10;12.05;;;7.97;;
57113;SDS011;42994;51.606;9.988;2023-02-18T07:20:37;11.68;;;8.48;;
57113;SDS011;42994;51.606;9.988;2023-02-18T07:23:03;9.40;;;6.50;;
57113;SDS011;42994;51.606;9.988;2023-02-18T07:25:30;9.52;;;6.93;;
57113;SDS011;42994;51.606;9.988;2023-02-18T07:27:57;8.90;;;6.38;;
57113;SDS011;42994;51.606;9.988;2023-02-18T07:30:23;6.65;;;5.43;;
57113;SDS011;42994;51.606;9.988;2023-02-18T07:32:50;6.82;;;5.35;;
57113;SDS011;42994;51.606;9.988;2023-02-18T07:35:18;10.93;;;5.10;;
57113;SDS011;42994;51.606;9.988;2023-02-18T07:37:45;7.05;;;4.82;;
57113;SDS011;42994;51.606;9.988;2023-02-18T07:40:15;7.32;;;5.03;;
57113;SDS011;42994;51.606;9.988;2023-02-18T07:42:43;4.93;;;4.40;;
57113;SDS011;42994;51.606;9.988;2023-02-18T07:45:10;4.82;;;4.15;;
57113;SDS011;42994;51.606;9.988;2023-02-18T07:47:37;5.07;;;3.83;;
57113;SDS011;42994;51.606;9.988;2023-02-18T07:50:06;4.55;;;3.90;;
57113;SDS011;42994;51.606;9.988;2023-02-18T07:52:35;6.05;;;3.35;;
57113;SDS011;42994;51.606;9.988;2023-02-18T07:55:02;5.63;;;3.67;;
57113;SDS011;42994;51.606;9.988;2023-02-18T07:57:29;5.68;;;3.22;;
57113;SDS011;42994;51.606;9.988;2023-02-18T07:59:56;3.42;;;3.05;;
57113;SDS011;42994;51.606;9.988;2023-02-18T08:02:23;3.45;;;2.47;;
57113;SDS011;42994;51.606;9.988;2023-02-18T08:04:49;2.63;;;2.35;;
57113;SDS011;42994;51.606;9.988;2023-02-18T08:07:17;2.22;;;2.00;;
57113;SDS011;42994;51.606;9.988;2023-02-18T08:09:47;2.42;;;1.80;;
57113;SDS011;42994;51.606;9.988;2023-02-18T08:12:14;3.47;;;1.92;;
57113;SDS011;42994;51.606;9.988;2023-02-18T08:14:41;1.77;;;1.40;;
57113;SDS011;42994;51.606;9.988;2023-02-18T08:17:08;1.25;;;1.15;;
57113;SDS011;42994;51.606;9.988;2023-02-18T08:19:35;1.98;;;1.50;;
57113;SDS011;42994;51.606;9.988;2023-02-18T08:22:02;3.63;;;1.20;;
57113;SDS011;42994;51.606;9.988;2023-02-18T08:24:28;1.50;;;1.40;;
57113;SDS011;42994;51.606;9.988;2023-02-18T08:26:57;1.35;;;1.20;;
57113;SDS011;42994;51.606;9.988;2023-02-18T08:29:24;0.68;;;0.68;;
57113;SDS011;42994;51.606;9.988;2023-02-18T08:31:50;0.90;;;0.90;;
57113;SDS011;42994;51.606;9.988;2023-02-18T08:34:19;1.92;;;0.63;;
57113;SDS011;42994;51.606;9.988;2023-02-18T08:36:46;0.80;;;0.80;;
57113;SDS011;42994;51.606;9.988;2023-02-18T08:39:12;0.60;;;0.60;;
57113;SDS011;42994;51.606;9.988;2023-02-18T08:41:46;0.90;;;0.60;;
57113;SDS011;42994;51.606;9.988;2023-02-18T08:44:14;0.60;;;0.60;;
57113;SDS011;42994;51.606;9.988;2023-02-18T08:46:41;1.08;;;0.50;;
57113;SDS011;42994;51.606;9.988;2023-02-18T08:49:08;0.80;;;0.60;;
57113;SDS011;42994;51.606;9.988;2023-02-18T08:51:35;0.43;;;0.43;;
57113;SDS011;42994;51.606;9.988;2023-02-18T08:54:01;0.55;;;0.43;;
57113;SDS011;42994;51.606;9.988;2023-02-18T08:56:28;0.80;;;0.50;;
57113;SDS011;42994;51.606;9.988;2023-02-18T08:58:55;3.90;;;0.77;;
57113;SDS011;42994;51.606;9.988;2023-02-18T09:01:24;1.58;;;1.17;;
57113;SDS011;42994;51.606;9.988;2023-02-18T09:03:51;5.75;;;3.50;;
57113;SDS011;42994;51.606;9.988;2023-02-18T09:06:18;1.48;;;1.30;;
57113;SDS011;42994;51.606;9.988;2023-02-18T09:08:45;1.85;;;0.90;;
57113;SDS011;42994;51.606;9.988;2023-02-18T09:11:12;0.60;;;0.60;;
57113;SDS011;42994;51.606;9.988;2023-02-18T09:13:40;1.05;;;0.65;;
57113;SDS011;42994;51.606;9.988;2023-02-18T09:16:07;0.82;;;0.50;;
57113;SDS011;42994;51.606;9.988;2023-02-18T09:18:38;0.77;;;0.70;;
57113;SDS011;42994;51.606;9.988;2023-02-18T09:21:14;3.33;;;1.30;;
57113;SDS011;42994;51.606;9.988;2023-02-18T09:23:44;1.02;;;0.63;;
57113;SDS011;42994;51.606;9.988;2023-02-18T09:26:13;0.32;;;0.32;;
57113;SDS011;42994;51.606;9.988;2023-02-18T09:28:42;1.02;;;0.40;;
57113;SDS011;42994;51.606;9.988;2023-02-18T09:31:10;0.20;;;0.20;;
57113;SDS011;42994;51.606;9.988;2023-02-18T09:33:43;0.30;;;0.30;;
57113;SDS011;42994;51.606;9.988;2023-02-18T09:36:14;0.35;;;0.20;;
57113;SDS011;42994;51.606;9.988;2023-02-18T09:38:41;0.63;;;0.47;;
57113;SDS011;42994;51.606;9.988;2023-02-18T09:41:09;1.23;;;0.25;;
57113;SDS011;42994;51.606;9.988;2023-02-18T09:43:44;0.35;;;0.30;;
57113;SDS011;42994;51.606;9.988;2023-02-18T09:46:15;0.95;;;0.95;;
57113;SDS011;42994;51.606;9.988;2023-02-18T09:48:46;0.30;;;0.30;;
57113;SDS011;42994;51.606;9.988;2023-02-18T09:51:14;0.30;;;0.30;;
57113;SDS011;42994;51.606;9.988;2023-02-18T09:53:42;0.30;;;0.30;;
57113;SDS011;42994;51.606;9.988;2023-02-18T09:56:10;0.35;;;0.25;;
57113;SDS011;42994;51.606;9.988;2023-02-18T09:58:38;0.20;;;0.20;;
57113;SDS011;42994;51.606;9.988;2023-02-18T10:01:10;0.95;;;0.30;;
57113;SDS011;42994;51.606;9.988;2023-02-18T10:03:42;0.20;;;0.17;;
57113;SDS011;42994;51.606;9.988;2023-02-18T10:06:11;0.20;;;0.20;;
57113;SDS011;42994;51.606;9.988;2023-02-18T10:08:44;0.73;;;0.45;;
57113;SDS011;42994;51.606;9.988;2023-02-18T10:11:13;0.20;;;0.20;;
57113;SDS011;42994;51.606;9.988;2023-02-18T10:13:42;0.55;;;0.28;;
57113;SDS011;42994;51.606;9.988;2023-02-18T10:16:09;0.20;;;0.10;;
57113;SDS011;42994;51.606;9.988;2023-02-18T10:18:42;0.20;;;0.20;;
57113;SDS011;42994;51.606;9.988;2023-02-18T10:21:15;0.80;;;0.23;;
57113;SDS011;42994;51.606;9.988;2023-02-18T10:23:52;1.80;;;0.30;;
57113;SDS011;42994;51.606;9.988;2023-02-18T10:26:24;0.75;;;0.38;;
57113;SDS011;42994;51.606;9.988;2023-02-18T10:28:51;0.50;;;0.40;;
57113;SDS011;42994;51.606;9.988;2023-02-18T10:31:19;0.20;;;0.20;;
57113;SDS011;42994;51.606;9.988;2023-02-18T10:33:52;0.75;;;0.40;;
57113;SDS011;42994;51.606;9.988;2023-02-18T10:36:28;0.75;;;0.50;;
57113;SDS011;42994;51.606;9.988;2023-02-18T10:39:05;0.47;;;0.40;;
57113;SDS011;42994;51.606;9.988;2023-02-18T10:41:46;1.00;;;0.45;;
57113;SDS011;42994;51.606;9.988;2023-02-18T10:46:54;3.85;;;0.75;;
57113;SDS011;42994;51.606;9.988;2023-02-18T10:49:40;0.85;;;0.70;;
57113;SDS011;42994;51.606;9.988;2023-02-18T10:52:22;1.90;;;1.52;;
57113;SDS011;42994;51.606;9.988;2023-02-18T10:54:52;2.10;;;1.90;;
57113;SDS011;42994;51.606;9.988;2023-02-18T10:57:25;1.63;;;1.48;;
57113;SDS011;42994;51.606;9.988;2023-02-18T10:59:53;1.92;;;1.30;;
57113;SDS011;42994;51.606;9.988;2023-02-18T11:02:23;0.95;;;0.85;;
57113;SDS011;42994;51.606;9.988;2023-02-18T11:04:54;2.83;;;1.50;;
57113;SDS011;42994;51.606;9.988;2023-02-18T11:07:24;2.40;;;2.30;;
57113;SDS011;42994;51.606;9.988;2023-02-18T11:09:55;3.05;;;1.98;;
57113;SDS011;42994;51.606;9.988;2023-02-18T11:12:24;2.25;;;1.35;;
57113;SDS011;42994;51.606;9.988;2023-02-18T11:15:06;1.30;;;1.20;;
57113;SDS011;42994;51.606;9.988;2023-02-18T11:17:43;1.10;;;1.10;;
57113;SDS011;42994;51.606;9.988;2023-02-18T11:20:26;1.35;;;1.25;;
57113;SDS011;42994;51.606;9.988;2023-02-18T11:22:57;4.82;;;3.70;;
57113;SDS011;42994;51.606;9.988;2023-02-18T11:25:40;1.30;;;1.20;;
57113;SDS011;42994;51.606;9.988;2023-02-18T11:28:27;2.65;;;2.42;;
57113;SDS011;42994;51.606;9.988;2023-02-18T11:30:59;1.33;;;1.23;;
57113;SDS011;42994;51.606;9.988;2023-02-18T11:33:30;2.70;;;2.50;;
57113;SDS011;42994;51.606;9.988;2023-02-18T11:36:02;1.77;;;1.65;;
57113;SDS011;42994;51.606;9.988;2023-02-18T11:38:35;2.08;;;1.45;;
57113;SDS011;42994;51.606;9.988;2023-02-18T11:41:05;1.20;;;1.10;;
57113;SDS011;42994;51.606;9.988;2023-02-18T11:43:34;1.03;;;0.80;;
57113;SDS011;42994;51.606;9.988;2023-02-18T11:46:09;2.33;;;1.20;;
57113;SDS011;42994;51.606;9.988;2023-02-18T11:48:36;2.45;;;0.90;;
57113;SDS011;42994;51.606;9.988;2023-02-18T11:51:03;2.17;;;0.90;;
57113;SDS011;42994;51.606;9.988;2023-02-18T11:53:32;1.38;;;0.98;;
57113;SDS011;42994;51.606;9.988;2023-02-18T11:56:03;0.70;;;0.70;;
57113;SDS011;42994;51.606;9.988;2023-02-18T11:58:35;0.98;;;0.98;;
57113;SDS011;42994;51.606;9.988;2023-02-18T12:01:05;1.60;;;1.00;;
57113;SDS011;42994;51.606;9.988;2023-02-18T12:03:40;2.13;;;1.17;;
57113;SDS011;42994;51.606;9.988;2023-02-18T12:06:14;2.83;;;2.13;;
57113;SDS011;42994;51.606;9.988;2023-02-18T12:08:48;4.22;;;1.00;;
57113;SDS011;42994;51.606;9.988;2023-02-18T12:11:21;1.50;;;1.40;;
57113;SDS011;42994;51.606;9.988;2023-02-18T12:13:54;1.45;;;1.35;;
57113;SDS011;42994;51.606;9.988;2023-02-18T12:16:23;3.63;;;1.10;;
57113;SDS011;42994;51.606;9.988;2023-02-18T12:19:02;2.65;;;1.60;;
57113;SDS011;42994;51.606;9.988;2023-02-18T12:21:38;1.05;;;0.95;;
57113;SDS011;42994;51.606;9.988;2023-02-18T12:24:17;1.30;;;1.20;;
57113;SDS011;42994;51.606;9.988;2023-02-18T12:29:40;1.50;;;1.40;;
57113;SDS011;42994;51.606;9.988;2023-02-18T12:32:23;0.93;;;0.90;;
57113;SDS011;42994;51.606;9.988;2023-02-18T12:35:06;2.90;;;1.42;;
57113;SDS011;42994;51.606;9.988;2023-02-18T12:38:02;4.05;;;0.70;;
57113;SDS011;42994;51.606;9.988;2023-02-18T12:40:47;2.38;;;1.10;;
57113;SDS011;42994;51.606;9.988;2023-02-18T12:43:29;0.75;;;0.75;;
57113;SDS011;42994;51.606;9.988;2023-02-18T12:46:12;1.00;;;0.93;;
57113;SDS011;42994;51.606;9.988;2023-02-18T12:52:04;1.95;;;1.45;;
57113;SDS011;42994;51.606;9.988;2023-02-18T12:54:50;4.72;;;1.42;;
57113;SDS011;42994;51.606;9.988;2023-02-18T12:57:35;3.33;;;2.45;;
57113;SDS011;42994;51.606;9.988;2023-02-18T13:00:15;6.53;;;4.32;;
57113;SDS011;42994;51.606;9.988;2023-02-18T13:03:17;2.03;;;1.55;;
57113;SDS011;42994;51.606;9.988;2023-02-18T13:05:59;3.40;;;2.50;;
57113;SDS011;42994;51.606;9.988;2023-02-18T13:08:37;3.80;;;0.90;;
57113;SDS011;42994;51.606;9.988;2023-02-18T13:11:15;1.23;;;1.13;;
57113;SDS011;42994;51.606;9.988;2023-02-18T13:13:57;1.92;;;1.10;;
57113;SDS011;42994;51.606;9.988;2023-02-18T13:16:29;1.38;;;1.00;;
57113;SDS011;42994;51.606;9.988;2023-02-18T13:18:58;0.95;;;0.77;;
57113;SDS011;42994;51.606;9.988;2023-02-18T13:21:33;0.95;;;0.85;;
57113;SDS011;42994;51.606;9.988;2023-02-18T13:24:05;1.05;;;0.90;;
57113;SDS011;42994;51.606;9.988;2023-02-18T13:26:36;1.45;;;1.13;;
57113;SDS011;42994;51.606;9.988;2023-02-18T13:29:09;2.38;;;0.80;;
57113;SDS011;42994;51.606;9.988;2023-02-18T13:31:51;0.80;;;0.80;;
57113;SDS011;42994;51.606;9.988;2023-02-18T13:34:28;1.90;;;1.38;;
57113;SDS011;42994;51.606;9.988;2023-02-18T13:37:02;2.42;;;2.22;;
57113;SDS011;42994;51.606;9.988;2023-02-18T13:39:36;1.30;;;1.20;;
57113;SDS011;42994;51.606;9.988;2023-02-18T13:42:21;1.08;;;1.00;;
57113;SDS011;42994;51.606;9.988;2023-02-18T13:47:52;1.10;;;0.75;;
57113;SDS011;42994;51.606;9.988;2023-02-18T13:50:24;1.00;;;0.93;;
57113;SDS011;42994;51.606;9.988;2023-02-18T13:55:49;1.02;;;0.93;;
57113;SDS011;42994;51.606;9.988;2023-02-18T13:58:20;1.65;;;1.13;;
57113;SDS011;42994;51.606;9.988;2023-02-18T14:00:52;0.75;;;0.70;;
57113;SDS011;42994;51.606;9.988;2023-02-18T14:03:30;0.80;;;0.80;;
57113;SDS011;42994;51.606;9.988;2023-02-18T14:06:00;2.10;;;0.95;;
57113;SDS011;42994;51.606;9.988;2023-02-18T14:08:38;4.78;;;2.15;;
57113;SDS011;42994;51.606;9.988;2023-02-18T14:14:35;2.45;;;1.00;;
57113;SDS011;42994;51.606;9.988;2023-02-18T14:26:07;3.08;;;1.13;;
57113;SDS011;42994;51.606;9.988;2023-02-18T14:28:43;2.33;;;1.00;;
57113;SDS011;42994;51.606;9.988;2023-02-18T14:31:25;2.03;;;1.08;;
57113;SDS011;42994;51.606;9.988;2023-02-18T14:34:05;1.27;;;1.17;;
57113;SDS011;42994;51.606;9.988;2023-02-18T14:36:53;1.73;;;1.20;;
57113;SDS011;42994;51.606;9.988;2023-02-18T14:39:33;1.85;;;1.75;;
57113;SDS011;42994;51.606;9.988;2023-02-18T14:42:13;1.60;;;1.50;;
57113;SDS011;42994;51.606;9.988;2023-02-18T14:45:00;5.07;;;3.75;;
57113;SDS011;42994;51.606;9.988;2023-02-18T14:47:38;2.15;;;1.48;;
57113;SDS011;42994;51.606;9.988;2023-02-18T14:50:20;2.38;;;2.17;;
57113;SDS011;42994;51.606;9.988;2023-02-18T14:52:48;2.22;;;2.03;;
57113;SDS011;42994;51.606;9.988;2023-02-18T14:55:21;3.55;;;2.13;;
57113;SDS011;42994;51.606;9.988;2023-02-18T14:57:51;4.57;;;2.42;;
57113;SDS011;42994;51.606;9.988;2023-02-18T15:00:22;4.82;;;2.80;;
57113;SDS011;42994;51.606;9.988;2023-02-18T15:02:50;5.82;;;3.33;;
57113;SDS011;42994;51.606;9.988;2023-02-18T15:05:22;4.90;;;3.85;;
57113;SDS011;42994;51.606;9.988;2023-02-18T15:07:57;4.53;;;3.03;;
57113;SDS011;42994;51.606;9.988;2023-02-18T15:13:21;4.72;;;3.22;;
57113;SDS011;42994;51.606;9.988;2023-02-18T15:15:54;4.65;;;3.95;;
57113;SDS011;42994;51.606;9.988;2023-02-18T15:18:25;6.25;;;3.60;;
57113;SDS011;42994;51.606;9.988;2023-02-18T15:21:00;3.67;;;3.38;;
57113;SDS011;42994;51.606;9.988;2023-02-18T15:23:28;4.03;;;3.58;;
57113;SDS011;42994;51.606;9.988;2023-02-18T15:25:55;7.65;;;4.10;;
57113;SDS011;42994;51.606;9.988;2023-02-18T15:28:24;7.10;;;3.75;;
57113;SDS011;42994;51.606;9.988;2023-02-18T15:30:54;7.63;;;3.58;;
57113;SDS011;42994;51.606;9.988;2023-02-18T15:33:22;3.60;;;3.13;;
57113;SDS011;42994;51.606;9.988;2023-02-18T15:35:49;4.90;;;3.38;;
57113;SDS011;42994;51.606;9.988;2023-02-18T15:38:18;3.70;;;3.10;;
57113;SDS011;42994;51.606;9.988;2023-02-18T15:40:46;8.30;;;6.60;;